createdAt,value
2018-07-08T00:01:41.542Z,48.32
2018-07-08T00:04:09.348Z,48.10
2018-07-08T00:06:41.565Z,48.66
2018-07-08T00:09:10.074Z,48.55
2018-07-08T00:11:37.854Z,48.57
2018-07-08T00:14:05.882Z,49.11
2018-07-08T00:16:34.193Z,49.28
2018-07-08T00:19:01.955Z,49.13
2018-07-08T00:21:30.774Z,48.96
2018-07-08T00:23:58.528Z,48.98
2018-07-08T00:26:26.231Z,49.10
2018-07-08T00:28:54.228Z,49.76
2018-07-08T00:31:22.671Z,50.06
2018-07-08T00:33:50.391Z,49.57
2018-07-08T00:36:19.844Z,50.34
2018-07-08T00:38:49.511Z,50.04
2018-07-08T00:41:17.255Z,50.49
2018-07-08T00:43:46.658Z,49.98
2018-07-08T00:46:14.698Z,50.55
2018-07-08T00:48:42.421Z,50.75
2018-07-08T00:51:10.178Z,50.68
2018-07-08T00:53:38.163Z,50.42
2018-07-08T00:56:05.903Z,50.96
2018-07-08T00:58:33.620Z,50.84
2018-07-08T01:01:01.629Z,51.13
2018-07-08T01:03:29.347Z,51.25
2018-07-08T01:05:59.067Z,51.42
2018-07-08T01:08:27.224Z,51.64
2018-07-08T01:10:55.477Z,51.58
2018-07-08T01:13:24.141Z,51.35
2018-07-08T01:16:03.297Z,51.86
2018-07-08T01:18:34.164Z,51.95
2018-07-08T01:21:02.547Z,51.60
2018-07-08T01:23:30.546Z,51.55
2018-07-08T01:25:58.288Z,52.19
2018-07-08T01:28:26.013Z,51.83
2018-07-08T01:30:54.514Z,52.33
2018-07-08T01:33:22.575Z,52.59
2018-07-08T01:35:50.301Z,52.20
2018-07-08T01:38:18.050Z,52.01
2018-07-08T01:40:45.769Z,52.49
2018-07-08T01:43:13.793Z,52.63
2018-07-08T01:45:41.527Z,53.01
2018-07-08T01:48:09.264Z,52.81
2018-07-08T01:50:37.303Z,52.54
2018-07-08T01:53:05.008Z,52.54
2018-07-08T01:55:32.730Z,52.85
2018-07-08T01:58:00.747Z,53.19
2018-07-08T02:00:28.466Z,52.96
2018-07-08T02:02:56.923Z,53.21
2018-07-08T02:05:24.647Z,52.75
2018-07-08T02:07:52.677Z,52.77
2018-07-08T02:10:23.216Z,52.92
2018-07-08T02:12:51.582Z,52.88
2018-07-08T02:15:19.615Z,53.36
2018-07-08T02:17:47.351Z,52.92
2018-07-08T02:20:15.599Z,53.45
2018-07-08T02:22:43.328Z,53.16
2018-07-08T02:25:11.320Z,53.25
2018-07-08T02:27:39.027Z,53.57
2018-07-08T02:30:06.757Z,53.68
2018-07-08T02:32:34.774Z,53.87
2018-07-08T02:35:02.522Z,54.34
2018-07-08T02:37:30.240Z,53.86
2018-07-08T02:39:58.076Z,54.44
2018-07-08T02:42:26.095Z,54.20
2018-07-08T02:44:53.891Z,54.05
2018-07-08T02:47:21.655Z,54.36
2018-07-08T02:49:49.863Z,54.17
2018-07-08T02:52:17.585Z,54.66
2018-07-08T02:54:45.345Z,54.74
2018-07-08T02:57:13.350Z,55.15
2018-07-08T02:59:41.086Z,54.70
2018-07-08T03:02:08.785Z,55.02
2018-07-08T03:04:36.786Z,54.94
2018-07-08T03:07:04.510Z,55.08
2018-07-08T03:09:32.232Z,55.19
2018-07-08T03:11:59.949Z,55.16
2018-07-08T03:14:27.944Z,55.36
2018-07-08T03:16:55.675Z,55.11
2018-07-08T03:19:23.406Z,55.52
2018-07-08T03:21:51.158Z,55.32
2018-07-08T03:24:19.177Z,55.29
2018-07-08T03:26:47.605Z,55.13
2018-07-08T03:29:15.359Z,55.36
2018-07-08T03:31:43.403Z,55.46
2018-07-08T03:34:11.162Z,55.81
2018-07-08T03:36:38.891Z,55.53
2018-07-08T03:39:06.683Z,55.61
2018-07-08T03:41:35.005Z,55.75
2018-07-08T03:44:02.753Z,55.70
2018-07-08T03:46:30.479Z,55.59
2018-07-08T03:48:58.223Z,56.36
2018-07-08T03:51:26.246Z,56.11
2018-07-08T03:53:54.020Z,56.28
2018-07-08T03:56:22.559Z,56.20
2018-07-08T03:58:50.308Z,56.73
2018-07-08T04:01:18.343Z,56.09
2018-07-08T04:03:46.072Z,56.08
2018-07-08T04:06:13.803Z,56.69
2018-07-08T04:08:41.540Z,56.69
2018-07-08T04:11:09.729Z,56.72
2018-07-08T04:13:37.454Z,56.17
2018-07-08T04:16:06.042Z,56.47
2018-07-08T04:18:33.780Z,56.03
2018-07-08T04:21:01.776Z,56.07
2018-07-08T04:23:29.496Z,56.13
2018-07-08T04:25:57.251Z,56.63
2018-07-08T04:28:26.622Z,56.62
2018-07-08T04:30:54.671Z,56.05
2018-07-08T04:33:22.403Z,55.96
2018-07-08T04:35:50.131Z,56.47
2018-07-08T04:38:17.884Z,56.16
2018-07-08T04:40:45.919Z,56.30
2018-07-08T04:43:14.601Z,55.79
2018-07-08T04:45:42.343Z,56.15
2018-07-08T04:48:10.058Z,55.45
2018-07-08T04:50:38.697Z,55.61
2018-07-08T04:53:06.427Z,55.34
2018-07-08T04:55:34.139Z,55.74
2018-07-08T04:58:02.165Z,55.58
2018-07-08T05:00:29.898Z,55.15
2018-07-08T05:02:57.628Z,55.56
2018-07-08T05:05:25.637Z,55.44
2018-07-08T05:07:53.363Z,55.49
2018-07-08T05:10:21.079Z,55.13
2018-07-08T05:12:49.716Z,55.14
2018-07-08T05:15:17.733Z,55.36
2018-07-08T05:17:45.467Z,55.50
2018-07-08T05:20:13.195Z,55.28
2018-07-08T05:22:40.923Z,54.81
2018-07-08T05:25:08.946Z,54.91
2018-07-08T05:27:36.674Z,54.68
2018-07-08T05:30:04.459Z,54.83
2018-07-08T05:32:32.210Z,54.98
2018-07-08T05:35:00.247Z,55.14
2018-07-08T05:37:27.955Z,54.83
2018-07-08T05:39:55.687Z,54.69
2018-07-08T05:42:23.412Z,54.80
2018-07-08T05:44:51.415Z,54.78
2018-07-08T05:47:19.150Z,55.07
2018-07-08T05:49:46.907Z,54.86
2018-07-08T05:52:14.965Z,54.61
2018-07-08T05:54:42.701Z,54.37
2018-07-08T05:57:10.455Z,54.97
2018-07-08T05:59:38.502Z,54.35
2018-07-08T06:02:06.242Z,54.75
2018-07-08T06:04:34.072Z,54.27
2018-07-08T06:07:01.846Z,54.60
2018-07-08T06:09:31.018Z,54.58
2018-07-08T06:11:59.770Z,54.62
2018-07-08T06:14:29.410Z,54.68
2018-07-08T06:16:57.461Z,54.38
2018-07-08T06:19:25.250Z,54.88
2018-07-08T06:21:53.027Z,54.62
2018-07-08T06:24:21.926Z,54.02
2018-07-08T06:26:50.185Z,54.06
2018-07-08T06:29:18.539Z,54.11
2018-07-08T06:31:47.545Z,54.45
2018-07-08T06:34:15.610Z,54.17
2018-07-08T06:36:43.370Z,54.41
2018-07-08T06:39:11.136Z,53.99
2018-07-08T06:41:38.898Z,54.23
2018-07-08T06:44:07.193Z,53.88
2018-07-08T06:46:34.957Z,53.91
2018-07-08T06:49:03.280Z,54.25
2018-07-08T06:51:31.842Z,53.71
2018-07-08T06:54:00.004Z,53.85
2018-07-08T06:56:29.099Z,53.56
2018-07-08T06:58:56.869Z,53.82
2018-07-08T07:01:25.014Z,53.59
2018-07-08T07:03:53.427Z,54.05
2018-07-08T07:06:21.195Z,53.47
2018-07-08T07:08:51.930Z,53.64
2018-07-08T07:11:20.766Z,53.18
2018-07-08T07:13:49.422Z,53.24
2018-07-08T07:16:17.617Z,53.09
2018-07-08T07:18:46.318Z,53.18
2018-07-08T07:21:15.519Z,53.75
2018-07-08T07:23:43.808Z,53.10
2018-07-08T07:26:14.343Z,53.01
2018-07-08T07:28:47.560Z,52.87
2018-07-08T07:31:15.724Z,53.23
2018-07-08T07:33:43.640Z,53.21
2018-07-08T07:36:11.637Z,53.20
2018-07-08T07:38:45.302Z,53.13
2018-07-08T07:41:13.761Z,52.68
2018-07-08T07:43:42.558Z,52.87
2018-07-08T07:46:11.492Z,53.09
2018-07-08T07:51:14.601Z,52.79
2018-07-08T07:53:42.774Z,52.73
2018-07-08T07:56:15.110Z,52.64
2018-07-08T07:58:43.544Z,52.52
2018-07-08T08:01:12.424Z,52.13
2018-07-08T08:03:41.632Z,52.01
2018-07-08T08:06:12.186Z,51.89
2018-07-08T08:08:40.542Z,52.21
2018-07-08T08:11:08.284Z,52.01
2018-07-08T08:13:36.073Z,51.41
2018-07-08T08:16:07.394Z,51.27
2018-07-08T08:18:35.171Z,51.26
2018-07-08T08:21:02.961Z,51.61
2018-07-08T08:23:32.547Z,51.27
2018-07-08T08:26:01.357Z,51.13
2018-07-08T08:28:36.021Z,50.62
2018-07-08T08:31:07.307Z,50.82
2018-07-08T08:33:35.894Z,50.65
2018-07-08T08:36:05.547Z,50.80
2018-07-08T08:38:34.499Z,50.35
2018-07-08T08:41:02.248Z,50.11
2018-07-08T08:43:32.266Z,50.39
2018-07-08T08:46:00.368Z,50.37
2018-07-08T08:48:28.100Z,50.11
2018-07-08T08:50:57.426Z,49.42
2018-07-08T08:53:25.663Z,49.66
2018-07-08T08:55:54.288Z,49.71
2018-07-08T08:58:30.188Z,49.50
2018-07-08T09:00:57.954Z,49.59
2018-07-08T09:03:26.384Z,49.15
2018-07-08T09:06:07.558Z,48.83
2018-07-08T09:08:36.403Z,48.69
2018-07-08T09:11:05.389Z,48.74
2018-07-08T09:13:36.082Z,48.73
2018-07-08T09:16:04.694Z,48.58
2018-07-08T09:18:32.765Z,48.17
2018-07-08T09:21:03.358Z,48.13
2018-07-08T09:23:31.793Z,48.28
2018-07-08T09:26:00.450Z,47.84
2018-07-08T09:28:36.254Z,47.52
2018-07-08T09:31:04.332Z,47.60
2018-07-08T09:33:32.277Z,47.64
2018-07-08T09:36:03.020Z,46.98
2018-07-08T09:38:31.960Z,47.13
2018-07-08T09:40:59.808Z,46.89
2018-07-08T09:43:29.325Z,46.80
2018-07-08T09:45:59.380Z,46.58
2018-07-08T09:48:29.098Z,46.41
2018-07-08T09:50:57.775Z,46.03
2018-07-08T09:53:25.830Z,46.24
2018-07-08T09:55:54.267Z,46.00
2018-07-08T09:58:23.325Z,45.85
2018-07-08T10:00:52.799Z,45.34
2018-07-08T10:03:24.691Z,45.10
2018-07-08T10:05:53.522Z,44.83
2018-07-08T10:08:21.666Z,44.92
2018-07-08T10:10:54.450Z,44.70
2018-07-08T10:13:25.929Z,44.50
2018-07-08T10:15:58.685Z,44.05
2018-07-08T10:18:31.802Z,44.34
2018-07-08T10:21:01.771Z,43.81
2018-07-08T10:23:29.805Z,43.70
2018-07-08T10:25:59.055Z,43.20
2018-07-08T10:28:27.775Z,43.33
2018-07-08T10:30:58.404Z,42.92
2018-07-08T10:33:30.596Z,43.24
2018-07-08T10:36:07.228Z,42.58
2018-07-08T10:38:36.240Z,43.10
2018-07-08T10:41:06.405Z,42.70
2018-07-08T10:43:36.222Z,42.63
2018-07-08T10:46:05.080Z,42.58
2018-07-08T10:48:34.986Z,41.78
2018-07-08T10:51:02.790Z,42.16
2018-07-08T10:53:32.607Z,42.25
2018-07-08T10:56:02.206Z,41.98
2018-07-08T10:58:31.651Z,41.66
2018-07-08T11:01:05.594Z,41.80
2018-07-08T11:03:33.649Z,41.47
2018-07-08T11:06:06.234Z,41.91
2018-07-08T11:11:19.143Z,41.26
2018-07-08T11:13:47.457Z,41.60
2018-07-08T11:16:19.293Z,40.59
2018-07-08T11:18:49.841Z,40.32
2018-07-08T11:21:19.417Z,40.64
2018-07-08T11:23:49.819Z,40.71
2018-07-08T11:26:18.206Z,39.94
2018-07-08T11:28:50.262Z,39.89
2018-07-08T11:31:19.596Z,39.94
2018-07-08T11:33:50.417Z,39.74
2018-07-08T11:36:19.227Z,39.77
2018-07-08T11:38:50.147Z,39.34
2018-07-08T11:44:02.687Z,39.61
2018-07-08T11:46:30.909Z,38.80
2018-07-08T11:49:00.292Z,38.69
2018-07-08T11:51:30.955Z,39.03
2018-07-08T11:53:58.714Z,38.40
2018-07-08T11:56:27.560Z,38.75
2018-07-08T11:59:01.523Z,37.85
2018-07-08T12:01:30.278Z,38.22
2018-07-08T12:03:59.718Z,38.17
2018-07-08T12:06:30.585Z,37.95
2018-07-08T12:09:03.252Z,37.20
2018-07-08T12:11:32.238Z,37.54
2018-07-08T12:14:04.153Z,37.36
2018-07-08T12:16:31.882Z,36.64
2018-07-08T12:19:02.401Z,36.43
2018-07-08T12:21:31.538Z,36.23
2018-07-08T12:24:01.232Z,36.98
2018-07-08T12:26:29.965Z,36.40
2018-07-08T12:28:57.737Z,36.26
2018-07-08T12:31:25.534Z,36.16
2018-07-08T12:33:54.407Z,36.07
2018-07-08T12:36:23.752Z,36.55
2018-07-08T12:38:51.515Z,35.78
2018-07-08T12:41:22.794Z,36.02
2018-07-08T12:43:53.000Z,35.80
2018-07-08T12:46:23.428Z,35.81
2018-07-08T12:48:55.980Z,35.90
2018-07-08T12:51:25.092Z,35.45
2018-07-08T12:53:53.732Z,35.33
2018-07-08T12:56:22.737Z,34.63
2018-07-08T12:58:53.387Z,34.81
2018-07-08T13:01:21.333Z,34.11
2018-07-08T13:03:50.965Z,33.83
2018-07-08T13:06:19.388Z,33.93
2018-07-08T13:08:47.439Z,33.39
2018-07-08T13:11:16.441Z,33.90
2018-07-08T13:13:46.388Z,32.97
2018-07-08T13:16:15.775Z,33.46
2018-07-08T13:18:44.623Z,32.72
2018-07-08T13:21:13.163Z,33.18
2018-07-08T13:23:41.448Z,33.06
2018-07-08T13:26:10.444Z,32.36
2018-07-08T13:28:40.229Z,32.83
2018-07-08T13:31:08.599Z,32.78
2018-07-08T13:36:12.642Z,31.80
2018-07-08T13:38:41.863Z,32.21
2018-07-08T13:41:10.706Z,32.04
2018-07-08T13:43:39.111Z,31.92
2018-07-08T13:46:12.330Z,31.55
2018-07-08T13:48:45.689Z,31.47
2018-07-08T13:51:13.472Z,31.25
2018-07-08T13:53:44.787Z,30.63
2018-07-08T13:56:14.716Z,30.56
2018-07-08T13:58:43.275Z,30.72
2018-07-08T14:01:12.974Z,30.36
2018-07-08T14:03:41.868Z,29.95
2018-07-08T14:06:17.123Z,30.35
2018-07-08T14:08:45.423Z,29.72
2018-07-08T14:11:14.521Z,29.58
2018-07-08T14:13:43.312Z,29.40
2018-07-08T14:16:12.503Z,30.06
2018-07-08T14:18:43.290Z,29.28
2018-07-08T14:21:11.933Z,29.19
2018-07-08T14:23:39.708Z,29.08
2018-07-08T14:26:09.530Z,29.63
2018-07-08T14:28:37.282Z,29.50
2018-07-08T14:31:05.116Z,28.88
2018-07-08T14:33:34.442Z,28.39
2018-07-08T14:36:02.307Z,28.99
2018-07-08T14:38:32.380Z,28.59
2018-07-08T14:41:06.523Z,28.46
2018-07-08T14:43:34.653Z,28.39
2018-07-08T14:46:03.998Z,28.74
2018-07-08T14:48:33.529Z,28.16
2018-07-08T14:51:03.394Z,28.61
2018-07-08T14:53:31.751Z,28.09
2018-07-08T14:56:03.400Z,28.66
2018-07-08T14:58:32.675Z,28.35
2018-07-08T15:01:00.519Z,29.07
2018-07-08T15:03:31.281Z,28.36
2018-07-08T15:06:00.283Z,28.14
2018-07-08T15:08:28.034Z,28.64
2018-07-08T15:10:59.973Z,28.73
2018-07-08T15:13:28.747Z,28.00
2018-07-08T15:15:57.489Z,27.82
2018-07-08T15:18:25.761Z,28.29
2018-07-08T15:20:54.009Z,28.18
2018-07-08T15:23:24.544Z,27.55
2018-07-08T15:25:52.765Z,27.61
2018-07-08T15:28:21.440Z,27.67
2018-07-08T15:33:27.433Z,27.81
2018-07-08T15:35:55.230Z,27.88
2018-07-08T15:38:23.381Z,27.51
2018-07-08T15:40:51.277Z,28.07
2018-07-08T15:43:22.451Z,27.77
2018-07-08T15:45:53.994Z,27.94
2018-07-08T15:48:24.265Z,27.67
2018-07-08T15:50:52.823Z,27.83
2018-07-08T15:53:22.823Z,28.55
2018-07-08T15:55:50.738Z,28.48
2018-07-08T15:58:19.243Z,27.83
2018-07-08T16:00:47.857Z,28.94
2018-07-08T16:03:17.216Z,27.83
2018-07-08T16:05:45.259Z,28.41
2018-07-08T16:08:17.381Z,27.88
2018-07-08T16:10:46.384Z,27.76
2018-07-08T16:13:16.671Z,28.93
2018-07-08T16:15:44.475Z,28.30
2018-07-08T16:18:15.180Z,28.88
2018-07-08T16:20:43.578Z,28.66
2018-07-08T16:23:11.951Z,28.29
2018-07-08T16:25:39.697Z,29.04
2018-07-08T16:28:09.143Z,29.16
2018-07-08T16:30:38.496Z,28.78
2018-07-08T16:33:07.760Z,28.81
2018-07-08T16:35:35.798Z,29.52
2018-07-08T16:38:06.477Z,29.44
2018-07-08T16:40:35.110Z,29.22
2018-07-08T16:45:36.606Z,29.52
2018-07-08T16:48:06.475Z,29.21
2018-07-08T16:50:39.412Z,29.10
2018-07-08T16:53:08.637Z,29.15
2018-07-08T16:55:37.843Z,29.30
2018-07-08T16:58:07.736Z,30.03
2018-07-08T17:00:37.856Z,29.41
2018-07-08T17:03:05.620Z,30.07
2018-07-08T17:05:36.734Z,29.52
2018-07-08T17:08:11.566Z,29.35
2018-07-08T17:13:13.741Z,29.76
2018-07-08T17:15:47.310Z,29.75
2018-07-08T17:18:16.498Z,29.98
2018-07-08T17:20:44.677Z,30.61
2018-07-08T17:23:13.335Z,30.64
2018-07-08T17:28:24.705Z,30.54
2018-07-08T17:30:52.818Z,30.52
2018-07-08T17:33:23.640Z,31.06
2018-07-08T17:35:55.573Z,30.32
2018-07-08T17:38:23.329Z,30.37
2018-07-08T17:40:52.295Z,31.09
2018-07-08T17:43:20.084Z,30.84
2018-07-08T17:45:48.632Z,30.99
2018-07-08T17:48:19.597Z,31.41
2018-07-08T17:50:49.224Z,30.73
2018-07-08T17:53:18.547Z,30.91
2018-07-08T17:55:47.310Z,31.60
2018-07-08T17:58:40.542Z,31.85
2018-07-08T18:01:09.467Z,32.00
2018-07-08T18:03:37.482Z,32.09
2018-07-08T18:06:06.352Z,31.56
2018-07-08T18:08:36.298Z,31.63
2018-07-08T18:11:09.560Z,32.20
2018-07-08T18:13:37.371Z,31.75
2018-07-08T18:16:05.169Z,32.41
2018-07-08T18:18:36.978Z,32.12
2018-07-08T18:21:04.759Z,32.24
2018-07-08T18:23:33.015Z,33.02
2018-07-08T18:26:02.230Z,33.13
2018-07-08T18:28:35.267Z,32.68
2018-07-08T18:31:03.822Z,33.17
2018-07-08T18:33:35.957Z,32.75
2018-07-08T18:36:03.779Z,32.75
2018-07-08T18:38:34.636Z,33.55
2018-07-08T18:41:04.894Z,33.16
2018-07-08T18:43:35.129Z,33.86
2018-07-08T18:46:03.555Z,33.36
2018-07-08T18:48:32.338Z,33.92
2018-07-08T18:51:01.815Z,34.13
2018-07-08T18:53:30.888Z,34.23
2018-07-08T18:55:59.815Z,34.24
2018-07-08T18:58:29.868Z,34.49
2018-07-08T19:00:57.992Z,34.15
2018-07-08T19:03:27.704Z,34.43
2018-07-08T19:05:56.387Z,34.89
2018-07-08T19:08:25.416Z,35.17
2018-07-08T19:10:55.589Z,34.69
2018-07-08T19:13:24.591Z,35.16
2018-07-08T19:15:54.731Z,34.97
2018-07-08T19:18:23.469Z,34.90
2018-07-08T19:20:51.218Z,35.10
2018-07-08T19:23:20.806Z,34.87
2018-07-08T19:25:50.538Z,35.55
2018-07-08T19:28:19.911Z,35.69
2018-07-08T19:30:50.915Z,35.76
2018-07-08T19:33:22.112Z,35.67
2018-07-08T19:35:53.479Z,35.42
2018-07-08T19:38:21.470Z,35.90
2018-07-08T19:40:50.843Z,35.56
2018-07-08T19:43:19.637Z,35.67
2018-07-08T19:45:47.454Z,35.73
2018-07-08T19:48:16.337Z,35.78
2018-07-08T19:50:45.624Z,35.79
2018-07-08T19:53:14.563Z,36.49
2018-07-08T19:55:42.647Z,36.19
2018-07-08T19:58:11.383Z,36.77
2018-07-08T20:00:39.900Z,36.89
2018-07-08T20:03:09.523Z,36.50
2018-07-08T20:05:38.462Z,37.16
2018-07-08T20:08:07.388Z,37.24
2018-07-08T20:10:36.187Z,37.44
2018-07-08T20:13:05.009Z,37.54
2018-07-08T20:15:33.736Z,37.52
2018-07-08T20:18:07.263Z,37.80
2018-07-08T20:20:35.807Z,37.37
2018-07-08T20:23:05.044Z,37.63
2018-07-08T20:25:33.834Z,37.67
2018-07-08T20:28:02.212Z,37.76
2018-07-08T20:30:32.228Z,38.54
2018-07-08T20:33:00.561Z,38.28
2018-07-08T20:35:28.403Z,38.83
2018-07-08T20:37:57.095Z,38.55
2018-07-08T20:40:25.143Z,38.78
2018-07-08T20:42:55.322Z,38.76
2018-07-08T20:45:23.682Z,39.53
2018-07-08T20:50:33.767Z,39.56
2018-07-08T20:53:06.600Z,39.47
2018-07-08T20:55:42.420Z,39.67
2018-07-08T20:58:11.254Z,40.32
2018-07-08T21:00:39.802Z,40.33
2018-07-08T21:03:07.906Z,40.45
2018-07-08T21:05:36.555Z,40.17
2018-07-08T21:08:05.670Z,40.38
2018-07-08T21:10:35.269Z,40.93
2018-07-08T21:13:07.572Z,40.48
2018-07-08T21:15:37.291Z,41.49
2018-07-08T21:18:07.047Z,40.89
2018-07-08T21:20:35.586Z,41.54
2018-07-08T21:23:03.331Z,41.22
2018-07-08T21:25:32.334Z,41.82
2018-07-08T21:28:00.704Z,41.67
2018-07-08T21:30:29.416Z,42.16
2018-07-08T21:32:57.416Z,41.78
2018-07-08T21:35:25.191Z,42.01
2018-07-08T21:37:53.364Z,42.34
2018-07-08T21:40:21.662Z,42.83
2018-07-08T21:42:49.694Z,42.41
2018-07-08T21:45:19.669Z,42.39
2018-07-08T21:47:50.522Z,42.78
2018-07-08T21:50:39.400Z,43.13
2018-07-08T21:53:09.127Z,42.98
2018-07-08T21:55:36.877Z,43.05
2018-07-08T21:58:05.965Z,43.52
2018-07-08T22:00:34.438Z,43.22
2018-07-08T22:03:03.256Z,43.69
2018-07-08T22:05:31.948Z,43.44
2018-07-08T22:08:03.819Z,43.37
2018-07-08T22:10:32.209Z,44.03
2018-07-08T22:13:01.184Z,44.08
2018-07-08T22:15:29.203Z,43.78
2018-07-08T22:17:57.295Z,43.80
2018-07-08T22:20:25.118Z,44.39
2018-07-08T22:22:54.083Z,44.37
2018-07-08T22:25:22.736Z,44.66
2018-07-08T22:27:54.666Z,44.13
2018-07-08T22:30:26.326Z,44.63
2018-07-08T22:32:55.198Z,45.01
2018-07-08T22:35:23.258Z,45.10
2018-07-08T22:37:52.966Z,44.71
2018-07-08T22:40:21.515Z,44.88
2018-07-08T22:42:51.100Z,45.33
2018-07-08T22:45:20.469Z,45.64
2018-07-08T22:47:48.518Z,45.22
2018-07-08T22:50:16.620Z,45.46
2018-07-08T22:52:44.361Z,45.84
2018-07-08T22:55:12.838Z,45.51
2018-07-08T22:57:41.727Z,45.43
2018-07-08T23:00:09.449Z,45.64
2018-07-08T23:02:38.506Z,46.15
2018-07-08T23:05:07.253Z,46.27
2018-07-08T23:07:34.986Z,45.83
2018-07-08T23:10:02.711Z,46.08
2018-07-08T23:12:30.903Z,46.03
2018-07-08T23:14:58.724Z,46.61
2018-07-08T23:17:26.673Z,46.68
2018-07-08T23:19:55.327Z,46.82
2018-07-08T23:22:25.712Z,46.80
2018-07-08T23:24:53.445Z,46.49
2018-07-08T23:27:22.380Z,46.86
2018-07-08T23:29:50.118Z,46.84
2018-07-08T23:32:17.855Z,47.34
2018-07-08T23:34:46.030Z,47.42
2018-07-08T23:37:13.804Z,47.46
2018-07-08T23:39:41.546Z,47.23
2018-07-08T23:42:09.599Z,46.97
2018-07-08T23:44:38.300Z,47.07
2018-07-08T23:47:06.038Z,47.69
2018-07-08T23:49:34.066Z,47.82
2018-07-08T23:52:01.793Z,47.90
2018-07-08T23:54:29.536Z,47.69
2018-07-08T23:56:57.260Z,47.89
2018-07-08T23:59:25.520Z,48.16
